Time;durP1;ratioP1;P1;durP2;ratioP2;P2;SDS_P1;SDS_P2;PMS_P1;PMS_P2;Temp;Humidity;BMP_temperature;BMP_pressure;BME280_temperature;BME280_humidity;BME280_pressure;Samples;Min_cycle;Max_cycle;Signal;HPM_P1;HPM_P2
2023/02/15 00:01:25;;;;;;;19.88;10.25;;;;;;;5.73;57.32;101111.63;5038068;28;20041;-60
2023/02/15 00:03:50;;;;;;;16.70;11.02;;;;;;;5.69;57.11;101120.66;5038202;28;20044;-63
2023/02/15 00:06:16;;;;;;;15.43;9.82;;;;;;;5.72;57.42;101129.19;5038167;28;20225;-60
2023/02/15 00:08:42;;;;;;;20.85;10.93;;;;;;;5.76;56.75;101122.78;5038146;28;20048;-61
2023/02/15 00:11:15;;;;;;;20.48;11.40;;;;;;;5.68;57.00;101117.16;5038476;28;20346;-60
2023/02/15 00:13:42;;;;;;;19.58;10.75;;;;;;;5.72;56.96;101125.69;5037804;28;20037;-62
2023/02/15 00:16:10;;;;;;;21.17;11.90;;;;;;;5.69;57.43;101125.91;5038659;28;20037;-62
2023/02/15 00:18:36;;;;;;;19.92;11.45;;;;;;;5.71;57.35;101126.66;5037474;28;20248;-60
2023/02/15 00:21:07;;;;;;;22.75;11.98;;;;;;;5.70;57.17;101122.34;5037844;28;20397;-61
2023/02/15 00:23:33;;;;;;;18.63;11.75;;;;;;;5.60;57.47;101129.94;5037581;28;20056;-61
2023/02/15 00:26:10;;;;;;;20.92;12.93;;;;;;;5.60;57.88;101137.00;5038390;28;20041;-65
2023/02/15 00:28:35;;;;;;;22.95;11.63;;;;;;;5.67;57.45;101122.53;5037761;28;20350;-60
2023/02/15 00:31:09;;;;;;;26.60;12.80;;;;;;;5.65;57.82;101121.78;5038239;28;20038;-61
2023/02/15 00:33:35;;;;;;;18.60;11.25;;;;;;;5.62;58.02;101127.22;5038425;28;20061;-60
2023/02/15 00:36:02;;;;;;;22.58;13.27;;;;;;;5.56;57.93;101128.47;5042430;28;20287;-61
2023/02/15 00:38:29;;;;;;;25.40;12.90;;;;;;;5.45;58.93;101125.66;5042535;28;20080;-61
2023/02/15 00:40:55;;;;;;;23.80;12.80;;;;;;;5.47;58.69;101131.66;5042085;28;20034;-63
2023/02/15 00:43:21;;;;;;;21.42;11.98;;;;;;;5.41;58.94;101135.50;5041857;28;20226;-62
2023/02/15 00:45:47;;;;;;;20.83;11.85;;;;;;;5.40;58.77;101133.81;5041915;28;20079;-62
2023/02/15 00:48:12;;;;;;;19.48;12.23;;;;;;;5.34;59.66;101131.56;5041973;28;20037;-61
2023/02/15 00:50:38;;;;;;;22.17;12.93;;;;;;;5.36;59.47;101132.31;5041589;28;20043;-63
2023/02/15 00:53:03;;;;;;;24.60;13.50;;;;;;;5.37;59.91;101126.13;5041539;28;20046;-62
2023/02/15 00:55:29;;;;;;;22.40;12.45;;;;;;;5.37;59.62;101128.75;5041699;28;20057;-60
2023/02/15 00:57:54;;;;;;;23.05;12.73;;;;;;;5.38;59.92;101122.56;5041158;28;20067;-62
2023/02/15 01:00:20;;;;;;;24.38;13.27;;;;;;;5.42;59.59;101124.06;5041942;28;20042;-61
2023/02/15 01:02:45;;;;;;;23.30;12.32;;;;;;;5.42;60.02;101121.44;5041656;28;20037;-62
2023/02/15 01:05:10;;;;;;;23.90;13.30;;;;;;;5.43;60.12;101127.53;5041321;28;20037;-63
2023/02/15 01:07:36;;;;;;;23.60;13.15;;;;;;;5.40;59.60;101125.94;5041389;28;20034;-60
2023/02/15 01:10:01;;;;;;;21.60;13.80;;;;;;;5.39;60.02;101115.53;5040847;28;20033;-60
2023/02/15 01:12:27;;;;;;;23.80;12.93;;;;;;;5.34;59.86;101120.22;5040859;28;20140;-61
2023/02/15 01:14:52;;;;;;;21.25;13.05;;;;;;;5.40;59.86;101112.81;5040727;28;20029;-63
2023/02/15 01:17:17;;;;;;;24.05;12.55;;;;;;;5.42;59.23;101112.72;5040581;28;20045;-62
2023/02/15 01:19:43;;;;;;;24.48;12.35;;;;;;;5.37;59.64;101102.50;5040863;28;20037;-61
2023/02/15 01:22:09;;;;;;;22.85;13.45;;;;;;;5.42;59.35;101100.41;5040674;28;20038;-61
2023/02/15 01:24:34;;;;;;;22.85;12.77;;;;;;;5.42;59.05;101100.41;5041107;28;20033;-61
2023/02/15 01:26:59;;;;;;;25.35;13.70;;;;;;;5.44;59.33;101100.31;5040828;28;20049;-62
2023/02/15 01:29:25;;;;;;;21.80;12.48;;;;;;;5.41;59.92;101096.09;5040708;28;20346;-63
2023/02/15 01:31:50;;;;;;;25.33;13.35;;;;;;;5.40;59.34;101101.47;5040981;28;20050;-60
2023/02/15 01:34:16;;;;;;;25.00;14.05;;;;;;;5.37;59.90;101099.03;5040521;28;20108;-61
2023/02/15 01:36:41;;;;;;;27.58;13.65;;;;;;;5.38;60.18;101106.81;5041081;28;20048;-60
2023/02/15 01:39:07;;;;;;;31.25;14.45;;;;;;;5.38;59.95;101100.72;5040983;28;20352;-61
2023/02/15 01:41:33;;;;;;;23.70;13.70;;;;;;;5.32;59.90;101098.47;5041303;28;20037;-62
2023/02/15 01:44:01;;;;;;;26.65;14.18;;;;;;;5.16;60.64;101098.53;5040813;28;20068;-62
2023/02/15 01:46:40;;;;;;;25.60;13.65;;;;;;;5.15;60.94;101102.09;5040377;28;20312;-61
2023/02/15 01:49:14;;;;;;;29.25;15.15;;;;;;;5.23;60.58;101109.53;5040374;28;20042;-61
2023/02/15 01:51:42;;;;;;;25.45;14.60;;;;;;;5.28;60.45;101120.59;5040465;28;20047;-61
2023/02/15 01:54:41;;;;;;;28.38;15.30;;;;;;;5.27;60.70;101113.66;5040200;28;20056;-63
2023/02/15 01:57:12;;;;;;;27.75;14.43;;;;;;;5.20;60.88;101120.19;5040108;28;20041;-61
2023/02/15 01:59:39;;;;;;;28.42;14.35;;;;;;;5.19;60.69;101127.25;5040193;28;20064;-61
2023/02/15 02:02:09;;;;;;;27.23;14.13;;;;;;;5.23;60.76;101135.81;5040123;28;20056;-61
2023/02/15 02:04:37;;;;;;;29.20;14.90;;;;;;;5.13;60.57;101136.34;5039636;28;20219;-62
2023/02/15 02:07:06;;;;;;;26.65;13.98;;;;;;;5.03;60.96;101143.06;5039681;28;20096;-63
2023/02/15 02:09:32;;;;;;;29.17;14.98;;;;;;;5.10;61.28;101139.16;5039267;28;20095;-61
2023/02/15 02:11:58;;;;;;;30.60;15.63;;;;;;;4.95;60.27;101141.84;5039805;28;20041;-61
2023/02/15 02:14:24;;;;;;;32.42;14.85;;;;;;;4.90;59.83;101141.28;5040181;28;20045;-62
2023/02/15 02:17:16;;;;;;;26.13;14.63;;;;;;;4.86;60.47;101145.03;5039957;28;20143;-62
2023/02/15 02:20:16;;;;;;;27.42;14.63;;;;;;;4.95;60.32;101147.09;5040010;28;20311;-61
2023/02/15 02:23:16;;;;;;;31.35;15.30;;;;;;;4.84;60.52;101153.00;5040297;28;20072;-61
2023/02/15 02:26:03;;;;;;;35.58;17.27;;;;;;;4.47;61.33;101154.31;5040123;28;20060;-62
2023/02/15 02:28:44;;;;;;;30.50;15.98;;;;;;;4.35;62.03;101149.75;5039520;28;20063;-63
2023/02/15 02:31:16;;;;;;;31.20;15.32;;;;;;;4.14;62.62;101155.28;5040071;28;20064;-62
2023/02/15 02:34:11;;;;;;;33.38;15.52;;;;;;;3.80;63.01;101144.97;5040260;28;20045;-60
2023/02/15 02:36:50;;;;;;;29.50;15.38;;;;;;;3.82;63.53;101154.44;5039531;28;20375;-60
2023/02/15 02:39:25;;;;;;;26.60;14.80;;;;;;;3.59;63.99;101159.25;5039672;28;20044;-62
2023/02/15 02:42:14;;;;;;;29.77;14.30;;;;;;;3.46;64.32;101162.53;5039611;28;20060;-61
2023/02/15 02:44:56;;;;;;;24.67;13.18;;;;;;;3.22;65.24;101166.44;5039601;28;20182;-61
2023/02/15 02:47:46;;;;;;;27.70;13.38;;;;;;;3.08;65.51;101161.91;5039551;28;20087;-62
2023/02/15 02:50:27;;;;;;;28.33;13.57;;;;;;;3.38;64.61;101162.09;5039626;28;20029;-63
2023/02/15 02:52:56;;;;;;;25.30;13.95;;;;;;;3.42;64.43;101162.78;5039398;28;20037;-60
2023/02/15 02:55:40;;;;;;;24.40;13.52;;;;;;;3.39;64.83;101160.31;5039382;28;20026;-62
2023/02/15 02:58:24;;;;;;;26.00;13.02;;;;;;;3.03;66.02;101165.69;5038067;28;20049;-61
2023/02/15 03:00:52;;;;;;;24.70;13.20;;;;;;;3.12;65.63;101173.06;5039572;28;20061;-61
2023/02/15 03:03:27;;;;;;;25.70;13.30;;;;;;;3.15;65.81;101168.53;5038661;28;20041;-62
2023/02/15 03:05:57;;;;;;;28.10;13.70;;;;;;;3.30;65.21;101168.66;5039312;28;20088;-62
2023/02/15 03:08:27;;;;;;;31.17;15.05;;;;;;;3.11;65.37;101180.06;5039064;28;20041;-61
2023/02/15 03:10:56;;;;;;;34.78;16.35;;;;;;;3.12;65.42;101173.06;5037847;28;20213;-60
2023/02/15 03:13:23;;;;;;;30.50;15.32;;;;;;;3.20;65.16;101177.00;5038842;28;20041;-61
2023/02/15 03:18:41;;;;;;;28.95;14.90;;;;;;;2.81;66.67;101182.47;5038514;28;20044;-61
2023/02/15 03:21:08;;;;;;;32.78;16.73;;;;;;;2.90;67.00;101178.56;5037758;28;20041;-61
2023/02/15 03:23:36;;;;;;;32.22;16.05;;;;;;;2.84;67.21;101176.25;5038659;28;20757;-61
2023/02/15 03:26:05;;;;;;;30.02;15.60;;;;;;;2.91;65.98;101175.00;5039025;28;20067;-61
2023/02/15 03:28:40;;;;;;;33.97;15.88;;;;;;;3.06;65.53;101171.59;5038868;28;20060;-63
2023/02/15 03:31:08;;;;;;;31.65;16.05;;;;;;;3.12;64.91;101173.94;5038767;28;20060;-61
2023/02/15 03:33:38;;;;;;;29.98;16.33;;;;;;;3.05;65.54;101175.16;5037896;28;20349;-61
2023/02/15 03:36:30;;;;;;;24.25;14.07;;;;;;;3.11;65.47;101174.84;5039328;28;20049;-62
2023/02/15 03:39:05;;;;;;;29.70;14.82;;;;;;;3.25;65.17;101173.31;5037532;28;20057;-62
2023/02/15 03:41:36;;;;;;;25.30;13.98;;;;;;;3.31;64.94;101180.84;5039397;28;20452;-60
2023/02/15 03:44:13;;;;;;;24.88;14.23;;;;;;;3.36;64.97;101186.66;5038435;28;20048;-61
2023/02/15 03:46:59;;;;;;;27.48;14.77;;;;;;;2.93;66.47;101188.88;5038381;28;20382;-62
2023/02/15 03:49:31;;;;;;;34.60;16.13;;;;;;;3.11;65.85;101189.69;5038209;28;20205;-62
2023/02/15 03:51:59;;;;;;;33.20;16.83;;;;;;;2.96;66.21;101182.63;5037737;28;20406;-60
2023/02/15 03:54:43;;;;;;;30.90;15.55;;;;;;;3.03;66.75;101189.25;5037777;28;20041;-61
2023/02/15 04:03:12;;;;;;;29.98;15.15;;;;;;;3.61;64.43;101186.22;5038168;28;20374;-61
2023/02/15 04:05:39;;;;;;;27.67;15.65;;;;;;;3.74;63.72;101193.31;5038063;28;20317;-60
2023/02/15 04:08:04;;;;;;;33.08;16.27;;;;;;;3.71;63.54;101190.03;5037780;28;20048;-61
2023/02/15 04:13:14;;;;;;;43.85;20.58;;;;;;;3.99;62.47;101192.81;5038226;28;20037;-60
2023/02/15 04:26:35;;;;;;;67.30;28.80;;;;;;;4.19;60.98;101197.00;5038211;28;20068;-61
2023/02/15 04:29:00;;;;;;;48.50;21.88;;;;;;;4.08;60.97;101204.56;5037335;28;20033;-61
2023/02/15 04:31:25;;;;;;;45.17;21.70;;;;;;;4.14;61.11;101212.09;5037856;28;20049;-61
2023/02/15 04:33:51;;;;;;;55.38;22.30;;;;;;;4.14;60.54;101214.72;5038082;28;20053;-62
2023/02/15 04:36:16;;;;;;;67.72;28.77;;;;;;;3.87;61.58;101208.38;5038251;28;20050;-62
2023/02/15 04:38:42;;;;;;;64.07;28.60;;;;;;;3.89;61.34;101206.50;5038126;28;20039;-61
2023/02/15 04:41:07;;;;;;;49.78;21.48;;;;;;;4.02;60.82;101211.00;5038090;28;20060;-61
2023/02/15 04:43:33;;;;;;;37.83;19.42;;;;;;;4.13;60.20;101213.03;5038130;28;20319;-61
2023/02/15 04:45:58;;;;;;;43.67;20.83;;;;;;;4.23;59.66;101216.84;5038174;28;20274;-63
2023/02/15 04:48:24;;;;;;;36.42;18.73;;;;;;;4.28;59.41;101225.31;5037412;28;20037;-61
2023/02/15 04:50:49;;;;;;;37.53;19.08;;;;;;;4.33;59.08;101235.53;5038104;28;20384;-61
2023/02/15 04:53:17;;;;;;;34.97;18.48;;;;;;;4.28;58.74;101221.84;5037531;28;20216;-61
2023/02/15 04:55:42;;;;;;;28.48;16.48;;;;;;;4.01;59.89;101232.91;5038269;28;20283;-61
2023/02/15 04:58:07;;;;;;;40.75;20.63;;;;;;;3.96;60.05;101231.47;5038012;28;20025;-62
2023/02/15 05:00:33;;;;;;;52.20;25.95;;;;;;;3.96;59.88;101239.31;5037766;28;20033;-61
2023/02/15 05:02:58;;;;;;;157.13;52.13;;;;;;;4.06;59.83;101243.13;5037482;28;20030;-61
2023/02/15 05:05:24;;;;;;;117.60;43.83;;;;;;;4.17;59.53;101246.03;5037951;28;20049;-61
2023/02/15 05:07:49;;;;;;;50.42;24.90;;;;;;;4.27;59.10;101247.22;5037473;28;20243;-61
2023/02/15 05:10:15;;;;;;;35.25;16.75;;;;;;;4.30;58.87;101243.59;5038058;28;20385;-63
2023/02/15 05:12:40;;;;;;;31.83;15.80;;;;;;;4.24;58.43;101252.63;5037352;28;20645;-61
2023/02/15 05:15:06;;;;;;;36.03;17.13;;;;;;;4.23;58.86;101264.06;5037989;28;20327;-61
2023/02/15 05:17:31;;;;;;;28.92;14.32;;;;;;;4.18;58.83;101262.63;5037707;28;20033;-60
2023/02/15 05:19:57;;;;;;;27.30;13.90;;;;;;;4.26;58.66;101260.41;5037594;28;20224;-61
2023/02/15 05:22:22;;;;;;;26.35;15.15;;;;;;;4.29;58.35;101268.97;5040789;28;20033;-63
2023/02/15 05:30:15;;;;;;;27.88;14.75;;;;;;;4.21;58.07;101272.94;5041384;28;20064;-61
2023/02/15 05:32:41;;;;;;;31.42;15.18;;;;;;;4.13;58.45;101273.31;5040821;28;20339;-61
2023/02/15 05:35:07;;;;;;;35.00;17.52;;;;;;;4.14;58.61;101278.47;5041222;28;20072;-61
2023/02/15 05:37:33;;;;;;;37.30;19.55;;;;;;;3.97;58.62;101269.84;5040403;28;20111;-61
2023/02/15 05:39:58;;;;;;;55.10;25.63;;;;;;;3.96;59.64;101287.34;5040796;28;20319;-60
2023/02/15 05:42:24;;;;;;;88.57;34.40;;;;;;;4.00;59.29;101278.38;5040983;28;20235;-62
2023/02/15 05:44:49;;;;;;;91.18;34.80;;;;;;;3.93;59.63;101298.00;5040934;28;20041;-62
2023/02/15 05:47:14;;;;;;;294.20;102.70;;;;;;;3.84;59.97;101295.84;5040525;28;20041;-61
2023/02/15 05:49:40;;;;;;;293.02;103.55;;;;;;;3.89;60.10;101301.69;5040750;28;20041;-61
2023/02/15 05:52:05;;;;;;;229.05;82.40;;;;;;;4.10;59.33;101303.16;5040467;28;20042;-61
2023/02/15 05:54:31;;;;;;;80.78;34.92;;;;;;;4.15;59.26;101303.75;5040536;28;20025;-63
2023/02/15 05:56:56;;;;;;;34.40;16.05;;;;;;;4.01;60.07;101315.91;5040454;28;20036;-61
2023/02/15 05:59:22;;;;;;;28.77;14.52;;;;;;;4.10;59.63;101316.28;5040347;28;20044;-61
2023/02/15 06:01:48;;;;;;;31.75;15.95;;;;;;;4.05;60.44;101327.94;5040667;28;20423;-61
2023/02/15 06:04:13;;;;;;;27.02;14.40;;;;;;;3.98;60.21;101319.56;5040570;28;20037;-64
2023/02/15 06:06:38;;;;;;;30.13;14.82;;;;;;;4.13;59.82;101320.50;5040239;28;20049;-63
2023/02/15 06:09:04;;;;;;;29.60;15.35;;;;;;;4.22;60.09;101322.66;5039842;28;20076;-61
2023/02/15 06:11:29;;;;;;;30.35;15.23;;;;;;;4.32;59.65;101323.00;5040419;28;20041;-61
2023/02/15 06:13:55;;;;;;;25.45;14.23;;;;;;;4.45;59.84;101327.50;5040580;28;20041;-60
2023/02/15 06:16:20;;;;;;;24.95;15.35;;;;;;;4.55;59.11;101327.00;5040360;28;20049;-63
2023/02/15 06:18:46;;;;;;;28.63;14.95;;;;;;;4.54;59.36;101323.53;5039364;28;20037;-61
2023/02/15 06:21:11;;;;;;;74.43;31.42;;;;;;;4.56;59.18;101324.28;5040298;28;20045;-62
2023/02/15 06:23:37;;;;;;;94.63;35.00;;;;;;;4.54;59.41;101323.53;5040038;28;20033;-62
2023/02/15 06:26:03;;;;;;;69.47;30.38;;;;;;;4.39;59.63;101327.00;5040202;28;20250;-61
2023/02/15 06:28:28;;;;;;;75.80;35.53;;;;;;;4.40;59.81;101328.69;5039913;28;20048;-62
2023/02/15 06:30:54;;;;;;;93.75;39.63;;;;;;;4.45;59.93;101321.41;5040149;28;20045;-61
2023/02/15 06:33:19;;;;;;;52.00;24.92;;;;;;;4.74;59.70;101327.66;5039721;28;20248;-60
2023/02/15 06:35:45;;;;;;;56.60;23.73;;;;;;;5.14;59.73;101331.47;5039628;28;20041;-61
2023/02/15 06:38:10;;;;;;;38.63;19.90;;;;;;;5.38;58.64;101334.50;5040022;28;20060;-61
2023/02/15 06:40:36;;;;;;;34.38;18.73;;;;;;;5.59;58.17;101327.97;5040406;28;20319;-63
2023/02/15 06:43:01;;;;;;;37.58;18.80;;;;;;;5.88;57.86;101331.47;5039579;28;20518;-62
2023/02/15 06:45:27;;;;;;;46.85;22.38;;;;;;;6.17;57.05;101332.34;5039684;28;20037;-62
2023/02/15 06:47:52;;;;;;;41.83;21.15;;;;;;;6.39;56.38;101322.19;5039400;28;20041;-61
2023/02/15 06:50:18;;;;;;;39.53;20.27;;;;;;;6.61;56.07;101329.56;5039486;28;20102;-61
2023/02/15 06:52:43;;;;;;;37.03;19.80;;;;;;;6.68;56.08;101336.13;5039638;28;20219;-63
2023/02/15 06:55:08;;;;;;;36.03;18.92;;;;;;;6.57;56.24;101335.13;5039721;28;20235;-61
2023/02/15 06:57:34;;;;;;;36.08;17.40;;;;;;;6.63;56.16;101335.56;5039795;28;20035;-61
2023/02/15 06:59:59;;;;;;;56.92;24.83;;;;;;;6.55;56.17;101329.97;5039380;28;20037;-61
2023/02/15 07:02:25;;;;;;;54.35;23.20;;;;;;;6.37;56.62;101325.84;5039780;28;20663;-62
2023/02/15 07:04:50;;;;;;;45.40;23.50;;;;;;;6.20;57.73;101323.41;5039435;28;20274;-61
2023/02/15 07:07:16;;;;;;;47.75;24.60;;;;;;;6.04;59.08;101320.88;5039180;28;20088;-61
2023/02/15 07:09:41;;;;;;;44.05;22.90;;;;;;;5.79;60.24;101321.50;5037893;28;20270;-63
2023/02/15 07:14:51;;;;;;;42.38;22.60;;;;;;;5.98;60.63;101310.75;5038085;28;20044;-60
2023/02/15 07:17:17;;;;;;;49.45;24.60;;;;;;;6.15;59.74;101312.31;5038321;28;20044;-62
2023/02/15 07:19:43;;;;;;;66.57;28.25;;;;;;;6.36;59.88;101321.53;5038157;28;20045;-63
2023/02/15 07:22:08;;;;;;;50.45;25.40;;;;;;;6.59;58.82;101317.44;5038260;28;20072;-64
2023/02/15 07:24:34;;;;;;;43.42;21.63;;;;;;;6.77;59.14;101318.03;5037696;28;20043;-62
2023/02/15 07:26:59;;;;;;;52.00;24.25;;;;;;;6.83;58.47;101310.59;5038304;28;20042;-61
2023/02/15 07:29:25;;;;;;;43.95;23.10;;;;;;;7.02;58.64;101313.72;5037458;28;20279;-61
2023/02/15 07:31:50;;;;;;;39.88;20.67;;;;;;;7.10;58.62;101312.38;5037743;28;20052;-62
2023/02/15 07:34:16;;;;;;;40.28;21.67;;;;;;;7.23;58.95;101311.44;5037885;28;20341;-64
2023/02/15 07:36:41;;;;;;;36.55;21.40;;;;;;;7.31;58.65;101306.53;5038081;28;20347;-62
2023/02/15 07:39:07;;;;;;;45.65;21.80;;;;;;;7.37;58.45;101310.56;5037685;28;20037;-62
2023/02/15 07:41:33;;;;;;;43.72;22.83;;;;;;;7.37;58.57;101318.47;5037982;28;20104;-62
2023/02/15 07:43:58;;;;;;;43.08;21.60;;;;;;;7.46;58.19;101322.25;5037233;28;20025;-61
2023/02/15 07:46:24;;;;;;;41.35;19.95;;;;;;;7.51;58.10;101323.63;5037608;28;20037;-63
2023/02/15 07:48:49;;;;;;;43.15;20.02;;;;;;;7.42;58.58;101315.50;5037703;28;20044;-64
2023/02/15 07:51:15;;;;;;;35.40;18.73;;;;;;;7.47;58.17;101314.25;5037308;28;20045;-62
2023/02/15 07:53:42;;;;;;;37.45;18.92;;;;;;;7.69;58.40;101311.84;5037002;28;20048;-61
2023/02/15 07:56:12;;;;;;;36.35;18.67;;;;;;;7.54;57.74;101318.16;5037750;28;20071;-63
2023/02/15 07:58:59;;;;;;;36.25;18.20;;;;;;;7.68;57.29;101323.34;5037186;28;20340;-63
2023/02/15 08:01:35;;;;;;;41.47;20.00;;;;;;;7.95;57.89;101319.75;5037638;28;20041;-62
2023/02/15 08:04:03;;;;;;;37.22;18.77;;;;;;;8.17;56.75;101314.66;5037533;28;20036;-61
2023/02/15 08:06:32;;;;;;;33.95;17.55;;;;;;;8.20;56.99;101314.44;5037072;28;20122;-61
2023/02/15 08:08:58;;;;;;;31.52;17.45;;;;;;;8.24;56.97;101315.06;5037488;28;20033;-62
2023/02/15 08:11:25;;;;;;;31.88;17.30;;;;;;;8.61;55.97;101308.03;5037431;28;20052;-63
2023/02/15 08:14:16;;;;;;;32.42;16.70;;;;;;;8.68;55.41;101314.56;5037126;28;20037;-63
2023/02/15 08:16:45;;;;;;;39.30;19.63;;;;;;;8.62;55.48;101317.66;5036855;28;20053;-62
2023/02/15 08:19:12;;;;;;;35.22;17.90;;;;;;;8.67;55.92;101299.66;5037205;28;20109;-62
2023/02/15 08:21:40;;;;;;;33.60;18.52;;;;;;;8.57;55.87;101309.22;5037715;28;20052;-63
2023/02/15 08:24:07;;;;;;;48.85;22.90;;;;;;;8.69;55.20;101316.25;5035668;28;20030;-65
2023/02/15 08:26:33;;;;;;;40.30;20.10;;;;;;;8.76;55.99;101308.72;5037521;28;20044;-61
2023/02/15 08:29:00;;;;;;;30.73;17.23;;;;;;;8.95;55.37;101309.06;5036848;28;20108;-61
2023/02/15 08:31:25;;;;;;;31.05;18.27;;;;;;;9.04;55.67;101310.16;5036709;28;20049;-62
2023/02/15 08:33:53;;;;;;;28.67;14.52;;;;;;;8.85;53.09;101308.88;5037102;28;20285;-61
2023/02/15 08:36:22;;;;;;;25.30;14.15;;;;;;;9.04;52.34;101310.16;5037274;28;20334;-64
2023/02/15 08:38:48;;;;;;;21.90;14.32;;;;;;;9.13;51.34;101305.03;5037480;28;20335;-61
2023/02/15 08:41:13;;;;;;;28.45;14.82;;;;;;;9.18;51.01;101308.19;5037836;28;20048;-61
2023/02/15 08:43:38;;;;;;;30.20;13.77;;;;;;;9.36;50.27;101305.94;5037132;28;20095;-62
2023/02/15 08:46:06;;;;;;;27.45;14.20;;;;;;;9.37;50.04;101293.59;5037191;28;20072;-64
2023/02/15 08:48:31;;;;;;;26.95;15.32;;;;;;;9.26;50.49;101308.44;5035514;28;20048;-63
2023/02/15 08:50:57;;;;;;;22.30;13.65;;;;;;;9.17;50.33;101308.28;5037081;28;20049;-62
2023/02/15 08:53:22;;;;;;;23.75;14.25;;;;;;;9.37;50.54;101305.03;5036629;28;20041;-61
2023/02/15 08:55:58;;;;;;;21.08;12.10;;;;;;;9.46;49.78;101306.13;5037538;28;20038;-63
2023/02/15 08:58:24;;;;;;;23.75;13.73;;;;;;;9.48;49.94;101314.78;5040570;28;20045;-65
2023/02/15 09:00:50;;;;;;;26.30;15.00;;;;;;;9.63;49.69;101315.41;5040368;28;20033;-62
2023/02/15 09:03:16;;;;;;;18.83;11.68;;;;;;;9.53;49.02;101308.19;5040614;28;20033;-61
2023/02/15 09:05:41;;;;;;;26.00;14.07;;;;;;;9.52;49.77;101317.06;5041011;28;20335;-61
2023/02/15 09:08:07;;;;;;;21.48;13.13;;;;;;;9.79;49.77;101308.81;5040351;28;20033;-63
2023/02/15 09:10:32;;;;;;;27.30;13.65;;;;;;;9.84;49.27;101304.03;5039935;28;20033;-61
2023/02/15 09:12:58;;;;;;;22.30;13.25;;;;;;;9.99;48.98;101309.06;5040119;28;20041;-62
2023/02/15 09:15:23;;;;;;;22.23;13.25;;;;;;;10.06;47.92;101302.34;5040328;28;20033;-62
2023/02/15 09:17:49;;;;;;;23.60;13.73;;;;;;;9.83;48.28;101297.03;5040047;28;20029;-62
2023/02/15 09:20:14;;;;;;;24.95;13.30;;;;;;;9.93;48.79;101305.09;5040306;28;20043;-61
2023/02/15 09:22:39;;;;;;;18.88;12.02;;;;;;;9.91;47.34;101293.78;5040325;28;20087;-62
2023/02/15 09:25:05;;;;;;;22.83;13.38;;;;;;;9.93;47.58;101289.22;5040416;28;20335;-64
2023/02/15 09:27:31;;;;;;;25.05;14.10;;;;;;;9.99;48.08;101286.09;5040086;28;20251;-63
2023/02/15 09:29:56;;;;;;;24.48;14.40;;;;;;;10.18;48.67;101294.25;5039966;28;20060;-62
2023/02/15 09:32:21;;;;;;;20.50;12.43;;;;;;;10.19;47.15;101290.66;5039950;28;20042;-61
2023/02/15 09:34:47;;;;;;;23.73;13.23;;;;;;;10.19;46.88;101285.34;5040215;28;20040;-62
2023/02/15 09:37:13;;;;;;;19.63;13.25;;;;;;;10.26;47.20;101290.19;5040326;28;20434;-63
2023/02/15 09:39:42;;;;;;;25.92;13.60;;;;;;;10.24;46.79;101285.03;5039192;28;20037;-61
2023/02/15 09:42:07;;;;;;;23.30;12.45;;;;;;;10.19;47.66;101282.72;5040418;28;20104;-62
2023/02/15 09:45:05;;;;;;;21.15;13.23;;;;;;;10.09;48.09;101278.28;5040329;28;20331;-61
2023/02/15 09:47:45;;;;;;;27.48;14.70;;;;;;;10.13;47.91;101271.78;5037425;28;20056;-63
2023/02/15 09:50:26;;;;;;;24.55;14.68;;;;;;;10.23;47.73;101278.06;5039671;28;20109;-62
2023/02/15 09:53:28;;;;;;;20.92;12.00;;;;;;;10.27;46.96;101270.72;5040011;28;20033;-62
2023/02/15 09:55:56;;;;;;;21.63;12.30;;;;;;;10.41;46.04;101270.47;5039805;28;20065;-61
2023/02/15 09:58:56;;;;;;;21.98;11.88;;;;;;;10.37;46.09;101276.94;5039426;28;20148;-62
2023/02/15 10:01:30;;;;;;;20.30;11.45;;;;;;;10.37;46.14;101269.84;5039630;28;20060;-63
2023/02/15 10:04:04;;;;;;;21.73;13.65;;;;;;;10.48;46.40;101266.34;5039692;28;20033;-63
2023/02/15 10:06:48;;;;;;;24.95;13.70;;;;;;;10.52;46.14;101263.34;5038851;28;20049;-62
2023/02/15 10:09:37;;;;;;;21.55;12.95;;;;;;;10.67;47.00;101260.41;5039934;28;20275;-61
2023/02/15 10:12:24;;;;;;;23.05;12.60;;;;;;;10.59;47.34;101258.38;5039627;28;20076;-63
2023/02/15 10:15:20;;;;;;;20.60;13.05;;;;;;;10.62;46.68;101257.28;5039209;28;20079;-61
2023/02/15 10:17:57;;;;;;;23.60;13.75;;;;;;;10.63;45.96;101253.66;5039087;28;20087;-62
2023/02/15 10:20:40;;;;;;;28.67;14.32;;;;;;;10.49;46.74;101249.50;5039786;28;20086;-62
2023/02/15 10:23:15;;;;;;;18.73;11.38;;;;;;;10.43;46.11;101237.59;5039049;28;20060;-61
2023/02/15 10:25:59;;;;;;;21.92;12.43;;;;;;;10.48;45.19;101238.06;5039454;28;20041;-64
2023/02/15 10:28:39;;;;;;;22.10;11.93;;;;;;;10.68;44.95;101235.59;5039269;28;20049;-61
2023/02/15 10:31:12;;;;;;;19.70;11.85;;;;;;;10.79;45.32;101224.94;5039633;28;20049;-62
2023/02/15 10:33:43;;;;;;;19.60;12.40;;;;;;;10.82;44.29;101230.84;5038947;28;20100;-62
2023/02/15 10:36:32;;;;;;;24.38;14.27;;;;;;;10.73;45.47;101223.66;5039311;28;20049;-63
2023/02/15 10:39:35;;;;;;;21.30;12.07;;;;;;;10.62;45.41;101222.84;5038823;28;20067;-64
2023/02/15 10:42:42;;;;;;;22.27;13.45;;;;;;;10.55;45.13;101212.75;5038511;28;20069;-63
2023/02/15 10:45:07;;;;;;;20.33;11.82;;;;;;;10.66;44.87;101211.03;5037797;28;20124;-62
2023/02/15 10:47:48;;;;;;;22.15;12.90;;;;;;;10.67;45.17;101207.41;5038622;28;20040;-64
2023/02/15 10:50:29;;;;;;;19.98;11.75;;;;;;;10.68;44.43;101215.25;5037345;28;20033;-63
2023/02/15 10:53:09;;;;;;;17.52;11.02;;;;;;;10.72;43.99;101211.38;5039672;28;20048;-61
2023/02/15 10:55:52;;;;;;;21.85;11.10;;;;;;;10.65;45.90;101206.72;5038397;28;20387;-61
2023/02/15 10:58:38;;;;;;;23.63;13.18;;;;;;;10.58;45.27;101195.78;5039355;28;20033;-62
2023/02/15 11:01:28;;;;;;;25.55;13.70;;;;;;;10.74;44.39;101201.47;5038752;28;20914;-62
2023/02/15 11:04:05;;;;;;;20.17;11.95;;;;;;;10.62;44.82;101206.97;5038459;28;20044;-60
2023/02/15 11:06:33;;;;;;;23.48;12.52;;;;;;;10.71;45.05;101193.78;5038928;28;20049;-62
2023/02/15 11:09:09;;;;;;;24.50;13.07;;;;;;;10.79;44.95;101188.69;5038480;28;20108;-63
2023/02/15 11:11:42;;;;;;;22.08;12.40;;;;;;;10.84;45.17;101185.66;5037381;28;20082;-63
2023/02/15 11:14:23;;;;;;;19.13;11.48;;;;;;;10.87;44.90;101180.09;5037953;28;20065;-61
2023/02/15 11:16:53;;;;;;;17.13;10.95;;;;;;;10.87;45.11;101180.94;5036944;28;20233;-60
2023/02/15 11:19:24;;;;;;;21.63;12.05;;;;;;;10.86;44.58;101183.72;5036419;28;20025;-61
2023/02/15 11:21:54;;;;;;;22.77;12.52;;;;;;;10.84;44.57;101178.56;5037646;28;20056;-61
2023/02/15 11:24:25;;;;;;;22.08;12.25;;;;;;;10.84;44.88;101175.06;5037759;28;20021;-61
2023/02/15 11:26:54;;;;;;;23.60;14.00;;;;;;;10.91;44.25;101167.44;5036204;28;20041;-62
2023/02/15 11:29:33;;;;;;;25.00;12.18;;;;;;;10.90;44.57;101161.28;5036766;28;20044;-62
2023/02/15 11:32:13;;;;;;;18.98;12.10;;;;;;;10.87;44.60;101165.03;5037081;28;20068;-61
2023/02/15 11:34:49;;;;;;;21.50;12.20;;;;;;;10.81;44.16;101156.78;5036838;28;20059;-60
2023/02/15 11:37:23;;;;;;;21.65;12.70;;;;;;;10.66;45.05;101150.94;5037368;28;20084;-61
2023/02/15 11:39:51;;;;;;;22.52;12.70;;;;;;;10.68;45.25;101143.72;5037514;28;20139;-61
2023/02/15 11:42:22;;;;;;;19.13;11.68;;;;;;;10.73;45.55;101149.47;5037020;28;20351;-62
2023/02/15 11:45:18;;;;;;;17.67;11.40;;;;;;;10.86;44.17;101147.47;5036706;28;20030;-60
2023/02/15 11:47:44;;;;;;;18.70;10.82;;;;;;;10.87;45.23;101138.53;5037237;28;20455;-61
2023/02/15 11:50:22;;;;;;;17.42;10.57;;;;;;;10.80;43.19;101145.34;5037267;28;20033;-63
2023/02/15 11:52:49;;;;;;;22.08;13.20;;;;;;;10.80;43.41;101139.19;5037421;28;20343;-60
2023/02/15 11:55:20;;;;;;;21.30;11.57;;;;;;;10.85;43.92;101137.84;5037204;28;20323;-61
2023/02/15 11:57:55;;;;;;;18.95;11.65;;;;;;;10.76;44.07;101133.31;5036248;28;20319;-61
2023/02/15 12:00:35;;;;;;;19.08;11.25;;;;;;;10.78;44.09;101127.88;5037360;28;20073;-63